Time;durP1;ratioP1;P1;durP2;ratioP2;P2;SDS_P1;SDS_P2;PMS_P1;PMS_P2;Temp;Humidity;BMP_temperature;BMP_pressure;BME280_temperature;BME280_humidity;BME280_pressure;Samples;Min_cycle;Max_cycle;Signal;HPM_P1;HPM_P2
2022/04/06 00:00:22;;;;;;;;;;;8.70;99.90;;;;;;5089869;28;19924;-55
2022/04/06 00:02:48;;;;;;;;;;;8.70;99.90;;;;;;5083526;28;20006;-56
2022/04/06 00:05:15;;;;;;;;;;;8.60;99.90;;;;;;5085226;28;19924;-55
2022/04/06 00:07:44;;;;;;;;;;;8.70;99.90;;;;;;5088011;28;19927;-56
2022/04/06 00:10:14;;;;;;;;;;;8.60;99.90;;;;;;5080414;28;20351;-55
2022/04/06 00:12:41;;;;;;;;;;;8.70;99.90;;;;;;5080014;28;19929;-55
2022/04/06 00:15:09;;;;;;;;;;;8.60;99.90;;;;;;5091203;28;20334;-55
2022/04/06 00:17:36;;;;;;;;;;;8.80;99.90;;;;;;5093305;28;20389;-55
2022/04/06 00:20:03;;;;;;;;;;;8.80;99.90;;;;;;5091712;28;19958;-55
2022/04/06 00:22:29;;;;;;;;;;;8.70;99.90;;;;;;5086682;28;19928;-56
2022/04/06 00:24:58;;;;;;;;;;;8.80;99.90;;;;;;5091596;28;19977;-56
2022/04/06 00:27:25;;;;;;;;;;;8.70;99.90;;;;;;5088404;28;19924;-56
2022/04/06 00:29:52;;;;;;;;;;;8.60;99.90;;;;;;5088829;28;19977;-56
2022/04/06 00:32:18;;;;;;;;;;;8.80;99.90;;;;;;5080377;28;19974;-55
2022/04/06 00:37:29;;;;;;;;;;;8.70;99.90;;;;;;5079491;28;20054;-56
2022/04/06 00:39:57;;;;;;;;;;;8.70;99.90;;;;;;5086810;28;20320;-55
2022/04/06 00:42:24;;;;;;;;;;;8.70;99.90;;;;;;5088163;28;19924;-55
2022/04/06 00:44:52;;;;;;;;;;;8.70;99.90;;;;;;5082912;28;19924;-55
2022/04/06 00:47:18;;;;;;;;;;;8.80;99.90;;;;;;5083632;28;19977;-56
2022/04/06 00:49:45;;;;;;;;;;;8.90;99.90;;;;;;5088417;28;19928;-57
2022/04/06 00:52:12;;;;;;;;;;;8.70;99.90;;;;;;5090021;28;19962;-57
2022/04/06 00:54:39;;;;;;;;;;;8.70;99.90;;;;;;5085659;28;19936;-56
2022/04/06 00:57:08;;;;;;;;;;;8.70;99.90;;;;;;5083092;28;20011;-56
2022/04/06 00:59:35;;;;;;;;;;;8.90;99.90;;;;;;5088574;28;20019;-56
2022/04/06 01:02:02;;;;;;;;;;;8.90;99.90;;;;;;5083463;28;19924;-56
2022/04/06 01:04:28;;;;;;;;;;;8.80;99.90;;;;;;5079441;28;19928;-56
2022/04/06 01:06:55;;;;;;;;;;;8.70;99.90;;;;;;5078839;28;20024;-56
2022/04/06 01:09:22;;;;;;;;;;;8.70;99.90;;;;;;5088784;28;19928;-57
2022/04/06 01:11:50;;;;;;;;;;;8.70;99.90;;;;;;5083253;28;19969;-57
2022/04/06 01:14:19;;;;;;;;;;;8.60;99.90;;;;;;5086526;28;19929;-57
2022/04/06 01:16:56;;;;;;;;;;;8.60;99.90;;;;;;5082855;28;20015;-57
2022/04/06 01:19:23;;;;;;;;;;;8.70;99.90;;;;;;5088869;28;19977;-57
2022/04/06 01:21:50;;;;;;;;;;;8.70;99.90;;;;;;5085772;28;19924;-57
2022/04/06 01:24:19;;;;;;;;;;;8.80;99.90;;;;;;5083332;28;19924;-56
2022/04/06 01:26:46;;;;;;;;;;;8.90;99.90;;;;;;5088603;28;20488;-57
2022/04/06 01:29:12;;;;;;;;;;;8.80;99.90;;;;;;5081924;28;20406;-57
2022/04/06 01:31:39;;;;;;;;;;;8.70;99.90;;;;;;5080812;28;19924;-56
2022/04/06 01:34:06;;;;;;;;;;;8.80;99.90;;;;;;5086113;28;19928;-57
2022/04/06 01:36:32;;;;;;;;;;;8.70;99.90;;;;;;5091398;28;19949;-56
2022/04/06 01:38:59;;;;;;;;;;;8.80;99.90;;;;;;5087598;28;19977;-56
2022/04/06 01:41:31;;;;;;;;;;;8.80;99.90;;;;;;5085001;28;19924;-56
2022/04/06 01:43:58;;;;;;;;;;;8.80;99.90;;;;;;5084827;28;20396;-56
2022/04/06 01:46:25;;;;;;;;;;;8.80;99.90;;;;;;5080974;28;19978;-57
2022/04/06 01:54:22;;;;;;;;;;;8.80;99.90;;;;;;5085762;28;19927;-56
2022/04/06 01:56:50;;;;;;;;;;;8.80;99.90;;;;;;5089814;28;20375;-56
2022/04/06 01:59:17;;;;;;;;;;;8.60;99.90;;;;;;5085109;28;20340;-57
2022/04/06 02:01:44;;;;;;;;;;;8.50;99.90;;;;;;5082427;28;19924;-57
2022/04/06 02:04:14;;;;;;;;;;;8.50;99.90;;;;;;5073548;28;19928;-57
2022/04/06 02:06:41;;;;;;;;;;;8.40;99.90;;;;;;5083724;28;19959;-56
2022/04/06 02:09:09;;;;;;;;;;;8.30;99.90;;;;;;5083256;28;19981;-56
2022/04/06 02:11:36;;;;;;;;;;;8.30;99.90;;;;;;5093299;28;19936;-57
2022/04/06 02:14:04;;;;;;;;;;;8.40;99.90;;;;;;5081215;28;19925;-56
2022/04/06 02:16:31;;;;;;;;;;;8.30;99.90;;;;;;5087868;28;19924;-56
2022/04/06 02:18:58;;;;;;;;;;;8.20;99.90;;;;;;5079860;28;20424;-56
2022/04/06 02:21:27;;;;;;;;;;;8.30;99.90;;;;;;5079371;28;19977;-56
2022/04/06 02:23:53;;;;;;;;;;;8.40;99.90;;;;;;5090998;28;19954;-56
2022/04/06 02:26:20;;;;;;;;;;;8.60;99.90;;;;;;5084735;28;19927;-57
2022/04/06 02:28:47;;;;;;;;;;;8.70;99.90;;;;;;5081299;28;20351;-56
2022/04/06 02:31:15;;;;;;;;;;;8.70;99.90;;;;;;5090913;28;19952;-57
2022/04/06 02:33:42;;;;;;;;;;;8.80;99.90;;;;;;5092724;28;19924;-56
2022/04/06 02:36:09;;;;;;;;;;;8.80;99.90;;;;;;5087695;28;20389;-56
2022/04/06 02:38:38;;;;;;;;;;;8.60;99.90;;;;;;5087260;28;20290;-56
2022/04/06 02:41:05;;;;;;;;;;;8.60;99.90;;;;;;5086485;28;19931;-57
2022/04/06 02:43:32;;;;;;;;;;;8.80;99.90;;;;;;5082676;28;19986;-56
2022/04/06 02:45:59;;;;;;;;;;;8.80;99.90;;;;;;5085767;28;19928;-60
2022/04/06 02:48:27;;;;;;;;;;;8.70;99.90;;;;;;5083407;28;19924;-56
2022/04/06 02:50:54;;;;;;;;;;;8.70;99.90;;;;;;5084126;28;19924;-56
2022/04/06 02:53:21;;;;;;;;;;;8.70;99.90;;;;;;5090315;28;20446;-56
2022/04/06 02:55:48;;;;;;;;;;;8.80;99.90;;;;;;5094444;28;20570;-56
2022/04/06 02:58:15;;;;;;;;;;;9.00;99.90;;;;;;5091315;28;20436;-56
2022/04/06 03:00:42;;;;;;;;;;;9.10;99.90;;;;;;5087525;28;19925;-56
2022/04/06 03:03:09;;;;;;;;;;;9.10;99.90;;;;;;5084236;28;20291;-56
2022/04/06 03:05:39;;;;;;;;;;;9.10;99.90;;;;;;5091535;28;20294;-56
2022/04/06 03:08:06;;;;;;;;;;;8.90;99.90;;;;;;5092707;28;19924;-56
2022/04/06 03:10:33;;;;;;;;;;;8.60;99.90;;;;;;5085358;28;20328;-56
2022/04/06 03:13:00;;;;;;;;;;;8.60;99.90;;;;;;5091515;28;19932;-56
2022/04/06 03:15:27;;;;;;;;;;;8.50;99.90;;;;;;5085769;28;19969;-56
2022/04/06 03:17:53;;;;;;;;;;;8.40;99.90;;;;;;5084129;28;19932;-56
2022/04/06 03:20:20;;;;;;;;;;;8.30;99.90;;;;;;5088293;28;20345;-55
2022/04/06 03:22:48;;;;;;;;;;;8.30;99.90;;;;;;5081359;28;20599;-56
2022/04/06 03:25:15;;;;;;;;;;;8.30;99.90;;;;;;5081672;28;19932;-56
2022/04/06 03:27:42;;;;;;;;;;;8.30;99.90;;;;;;5082976;28;19928;-56
2022/04/06 03:30:11;;;;;;;;;;;8.40;99.90;;;;;;5085542;28;20031;-56
2022/04/06 03:32:38;;;;;;;;;;;8.30;99.90;;;;;;5082797;28;19960;-56
2022/04/06 03:35:05;;;;;;;;;;;8.30;99.90;;;;;;5092840;28;20301;-57
2022/04/06 03:37:32;;;;;;;;;;;8.20;99.90;;;;;;5086068;28;19928;-56
2022/04/06 03:40:01;;;;;;;;;;;8.20;99.90;;;;;;5084775;28;20023;-57
2022/04/06 03:42:28;;;;;;;;;;;8.40;99.90;;;;;;5080411;28;19936;-57
2022/04/06 03:44:55;;;;;;;;;;;8.50;99.90;;;;;;5081775;28;19925;-57
2022/04/06 03:47:28;;;;;;;;;;;8.50;99.90;;;;;;5085361;28;19932;-57
2022/04/06 03:49:54;;;;;;;;;;;8.70;99.90;;;;;;5082906;28;20360;-56
2022/04/06 03:52:21;;;;;;;;;;;8.70;99.90;;;;;;5086679;28;19977;-56
2022/04/06 03:54:48;;;;;;;;;;;8.60;99.90;;;;;;5083481;28;19985;-56
2022/04/06 03:57:16;;;;;;;;;;;8.50;99.90;;;;;;5086562;28;20399;-56
2022/04/06 03:59:43;;;;;;;;;;;8.40;99.90;;;;;;5088171;28;19924;-56
2022/04/06 04:02:10;;;;;;;;;;;8.40;99.90;;;;;;5079991;28;19935;-56
2022/04/06 04:04:37;;;;;;;;;;;8.50;99.90;;;;;;5080067;28;20336;-56
2022/04/06 04:07:06;;;;;;;;;;;8.50;99.90;;;;;;5081582;28;19978;-56
2022/04/06 04:09:33;;;;;;;;;;;8.60;99.90;;;;;;5080847;28;19925;-56
2022/04/06 04:12:00;;;;;;;;;;;8.60;99.90;;;;;;5085832;28;19948;-55
2022/04/06 04:14:31;;;;;;;;;;;8.40;99.90;;;;;;5091855;28;19966;-56
2022/04/06 04:16:58;;;;;;;;;;;8.40;99.90;;;;;;5074420;28;19932;-56
2022/04/06 04:19:25;;;;;;;;;;;8.20;99.90;;;;;;5072712;28;19924;-57
2022/04/06 04:21:52;;;;;;;;;;;8.20;99.90;;;;;;5074371;28;19940;-56
2022/04/06 04:24:19;;;;;;;;;;;8.30;99.90;;;;;;5081263;28;19957;-56
2022/04/06 04:26:46;;;;;;;;;;;8.30;99.90;;;;;;5074362;28;19977;-56
2022/04/06 04:29:14;;;;;;;;;;;8.30;99.90;;;;;;5074743;28;20011;-55
2022/04/06 04:31:42;;;;;;;;;;;8.60;99.90;;;;;;5072890;28;19936;-55
2022/04/06 04:34:09;;;;;;;;;;;8.70;99.90;;;;;;5075988;28;19928;-55
2022/04/06 04:36:36;;;;;;;;;;;8.70;99.90;;;;;;5080837;28;19993;-57
2022/04/06 04:39:03;;;;;;;;;;;8.40;99.90;;;;;;5073697;28;19970;-57
2022/04/06 04:41:30;;;;;;;;;;;8.30;99.90;;;;;;5072176;28;19932;-55
2022/04/06 04:43:57;;;;;;;;;;;8.20;99.90;;;;;;5072340;28;19924;-56
2022/04/06 04:46:24;;;;;;;;;;;8.20;99.90;;;;;;5078213;28;20455;-55
2022/04/06 04:48:52;;;;;;;;;;;8.10;99.90;;;;;;5088297;28;19982;-57
2022/04/06 04:51:19;;;;;;;;;;;8.20;99.90;;;;;;5072024;28;19931;-55
2022/04/06 04:53:46;;;;;;;;;;;8.50;99.90;;;;;;5072099;28;19924;-56
2022/04/06 04:56:12;;;;;;;;;;;8.40;99.90;;;;;;5076259;28;19935;-56
2022/04/06 04:58:39;;;;;;;;;;;8.30;99.90;;;;;;5076071;28;19924;-56
2022/04/06 05:01:07;;;;;;;;;;;8.50;99.90;;;;;;5077672;28;19924;-57
2022/04/06 05:03:34;;;;;;;;;;;8.70;99.90;;;;;;5085191;28;19947;-56
2022/04/06 05:06:03;;;;;;;;;;;8.60;99.90;;;;;;5082345;28;20422;-56
2022/04/06 05:08:30;;;;;;;;;;;8.40;99.90;;;;;;5085548;28;20309;-56
2022/04/06 05:10:57;;;;;;;;;;;8.40;99.90;;;;;;5083355;28;19927;-57
2022/04/06 05:13:24;;;;;;;;;;;8.30;99.90;;;;;;5085042;28;19970;-56
2022/04/06 05:15:50;;;;;;;;;;;8.40;99.90;;;;;;5083876;28;19935;-56
2022/04/06 05:18:17;;;;;;;;;;;8.50;99.90;;;;;;5083714;28;19932;-55
2022/04/06 05:20:44;;;;;;;;;;;8.70;99.90;;;;;;5078685;28;19986;-56
2022/04/06 05:23:12;;;;;;;;;;;8.80;99.90;;;;;;5087362;28;19977;-56
2022/04/06 05:25:39;;;;;;;;;;;8.80;99.90;;;;;;5082887;28;19925;-55
2022/04/06 05:28:06;;;;;;;;;;;8.70;99.90;;;;;;5075736;28;19924;-55
2022/04/06 05:30:33;;;;;;;;;;;8.70;99.90;;;;;;5088475;28;19936;-56
2022/04/06 05:33:00;;;;;;;;;;;9.00;99.90;;;;;;5071955;28;19932;-56
2022/04/06 05:35:27;;;;;;;;;;;9.20;99.90;;;;;;5082101;28;19924;-56
2022/04/06 05:37:56;;;;;;;;;;;9.30;99.90;;;;;;5081853;28;19924;-56
2022/04/06 05:40:24;;;;;;;;;;;9.30;99.90;;;;;;5082918;28;20356;-56
2022/04/06 05:42:51;;;;;;;;;;;9.30;99.90;;;;;;5082099;28;20403;-56
2022/04/06 05:45:18;;;;;;;;;;;9.40;99.90;;;;;;5088547;28;19924;-56
2022/04/06 05:47:45;;;;;;;;;;;9.40;99.90;;;;;;5080427;28;19932;-56
2022/04/06 05:50:13;;;;;;;;;;;9.40;99.90;;;;;;5083910;28;19932;-56
2022/04/06 05:52:40;;;;;;;;;;;9.50;99.90;;;;;;5086704;28;19957;-55
2022/04/06 05:55:08;;;;;;;;;;;9.50;99.90;;;;;;5082272;28;19928;-57
2022/04/06 05:57:36;;;;;;;;;;;9.50;99.90;;;;;;5079842;28;19928;-56
2022/04/06 06:00:06;;;;;;;;;;;9.60;99.90;;;;;;5085862;28;19932;-56
2022/04/06 06:02:33;;;;;;;;;;;9.80;99.90;;;;;;5083247;28;19924;-56
2022/04/06 06:05:00;;;;;;;;;;;10.10;99.90;;;;;;5076962;28;20298;-57
2022/04/06 06:07:29;;;;;;;;;;;10.50;99.90;;;;;;5080690;28;19924;-57
2022/04/06 06:09:56;;;;;;;;;;;10.60;99.90;;;;;;5086504;28;19939;-56
2022/04/06 06:12:23;;;;;;;;;;;10.70;99.90;;;;;;5085402;28;19924;-57
2022/04/06 06:14:51;;;;;;;;;;;11.00;99.90;;;;;;5078294;28;19924;-57
2022/04/06 06:17:18;;;;;;;;;;;11.30;99.90;;;;;;5087040;28;19924;-56
2022/04/06 06:19:45;;;;;;;;;;;12.20;99.90;;;;;;5081217;28;19932;-56
2022/04/06 06:22:15;;;;;;;;;;;12.70;99.90;;;;;;5083193;28;19928;-58
2022/04/06 06:24:42;;;;;;;;;;;12.80;99.90;;;;;;5080474;28;19929;-56
2022/04/06 06:27:09;;;;;;;;;;;12.50;99.90;;;;;;5083868;28;19985;-57
2022/04/06 06:29:36;;;;;;;;;;;12.70;99.90;;;;;;5080669;28;19970;-56
2022/04/06 06:32:06;;;;;;;;;;;13.00;99.90;;;;;;5085920;28;19928;-56
2022/04/06 06:34:33;;;;;;;;;;;13.60;99.90;;;;;;5073913;28;19975;-57
2022/04/06 06:37:00;;;;;;;;;;;14.70;99.90;;;;;;5088671;28;19925;-57
2022/04/06 06:39:27;;;;;;;;;;;16.50;99.90;;;;;;5087645;28;22005;-57
2022/04/06 06:41:54;;;;;;;;;;;18.00;99.90;;;;;;5083849;28;20000;-58
2022/04/06 06:44:21;;;;;;;;;;;18.90;99.90;;;;;;5075517;28;20019;-57
2022/04/06 06:46:48;;;;;;;;;;;21.10;99.90;;;;;;5081016;28;20001;-59
2022/04/06 06:49:16;;;;;;;;;;;23.30;99.90;;;;;;5083360;28;19928;-58
2022/04/06 06:51:43;;;;;;;;;;;22.70;99.90;;;;;;5078279;28;19977;-58
2022/04/06 06:54:10;;;;;;;;;;;23.30;99.00;;;;;;5085060;28;19978;-58
2022/04/06 06:56:37;;;;;;;;;;;23.20;98.90;;;;;;5078123;28;19929;-58
2022/04/06 06:59:04;;;;;;;;;;;23.50;97.20;;;;;;5093711;28;19924;-58
2022/04/06 07:01:31;;;;;;;;;;;25.10;95.30;;;;;;5091820;28;20197;-58
2022/04/06 07:03:58;;;;;;;;;;;24.90;93.40;;;;;;5086538;28;19982;-58
2022/04/06 07:06:27;;;;;;;;;;;24.40;93.00;;;;;;5082417;28;19927;-58
2022/04/06 07:08:54;;;;;;;;;;;23.60;93.20;;;;;;5080524;28;19939;-61
2022/04/06 07:11:21;;;;;;;;;;;24.30;91.60;;;;;;5081621;28;19925;-58
2022/04/06 07:13:48;;;;;;;;;;;23.30;94.00;;;;;;5079776;28;19958;-58
2022/04/06 07:16:15;;;;;;;;;;;23.40;93.90;;;;;;5085845;28;20108;-58
2022/04/06 07:18:42;;;;;;;;;;;23.30;92.50;;;;;;5086862;28;19923;-58
2022/04/06 07:21:09;;;;;;;;;;;24.60;91.60;;;;;;5083497;28;20015;-58
2022/04/06 07:23:38;;;;;;;;;;;24.50;91.20;;;;;;5075039;28;19978;-58
2022/04/06 07:26:05;;;;;;;;;;;25.50;91.70;;;;;;5072341;28;19928;-58
2022/04/06 07:28:32;;;;;;;;;;;27.00;89.50;;;;;;5092199;28;19928;-58
2022/04/06 07:30:59;;;;;;;;;;;26.10;86.10;;;;;;5090543;28;19928;-58
2022/04/06 07:33:26;;;;;;;;;;;25.00;87.60;;;;;;5089411;28;19997;-58
2022/04/06 07:35:56;;;;;;;;;;;25.50;87.00;;;;;;5091234;28;19923;-58
2022/04/06 07:38:23;;;;;;;;;;;26.50;84.90;;;;;;5090180;28;19931;-58
2022/04/06 07:40:51;;;;;;;;;;;25.90;83.80;;;;;;5084691;28;20062;-58
2022/04/06 07:43:18;;;;;;;;;;;26.30;83.30;;;;;;5080377;28;19924;-58
2022/04/06 07:45:45;;;;;;;;;;;25.80;82.70;;;;;;5078183;28;19925;-58
2022/04/06 07:48:11;;;;;;;;;;;26.40;83.80;;;;;;5072547;28;20009;-58
2022/04/06 07:50:38;;;;;;;;;;;27.60;79.80;;;;;;5072994;28;20014;-58
2022/04/06 07:53:05;;;;;;;;;;;28.00;76.80;;;;;;5087823;28;20033;-58
2022/04/06 07:55:33;;;;;;;;;;;28.40;78.60;;;;;;5075468;28;19958;-59
2022/04/06 07:58:01;;;;;;;;;;;28.20;76.70;;;;;;5076770;28;20453;-58
2022/04/06 08:00:32;;;;;;;;;;;25.90;80.00;;;;;;5076503;28;19978;-57
2022/04/06 08:03:00;;;;;;;;;;;26.30;81.60;;;;;;5074807;28;19955;-57
2022/04/06 08:05:27;;;;;;;;;;;28.20;77.10;;;;;;5086671;28;19924;-58
2022/04/06 08:07:54;;;;;;;;;;;29.30;71.60;;;;;;5091837;28;19993;-58
2022/04/06 08:10:21;;;;;;;;;;;29.10;69.60;;;;;;5086479;28;20326;-59
2022/04/06 08:12:48;;;;;;;;;;;28.70;70.80;;;;;;5084559;28;19924;-58
2022/04/06 08:15:17;;;;;;;;;;;29.40;69.50;;;;;;5082492;28;20455;-58
2022/04/06 08:17:44;;;;;;;;;;;28.30;70.80;;;;;;5071585;28;20011;-59
2022/04/06 08:20:12;;;;;;;;;;;26.90;75.30;;;;;;5081813;28;19985;-58
2022/04/06 08:22:39;;;;;;;;;;;28.00;73.30;;;;;;5090238;28;20025;-59
2022/04/06 08:25:06;;;;;;;;;;;29.50;72.20;;;;;;5090403;28;19923;-58
2022/04/06 08:27:36;;;;;;;;;;;29.90;66.90;;;;;;5082897;28;19940;-58
2022/04/06 08:30:03;;;;;;;;;;;30.00;67.80;;;;;;5071599;28;19951;-58
2022/04/06 08:32:32;;;;;;;;;;;31.00;65.60;;;;;;5071192;28;19928;-58
2022/04/06 08:34:58;;;;;;;;;;;31.50;63.90;;;;;;5073289;28;19991;-59
2022/04/06 08:37:25;;;;;;;;;;;31.20;65.10;;;;;;5084392;28;19935;-59
2022/04/06 08:39:52;;;;;;;;;;;29.80;65.20;;;;;;5084423;28;19935;-59
2022/04/06 08:42:19;;;;;;;;;;;30.70;62.90;;;;;;5084758;28;19924;-59
2022/04/06 08:44:46;;;;;;;;;;;30.50;64.80;;;;;;5085071;28;19932;-59
2022/04/06 08:47:13;;;;;;;;;;;30.10;64.70;;;;;;5077597;28;19973;-59
2022/04/06 08:49:43;;;;;;;;;;;30.40;63.80;;;;;;5079358;28;20401;-59
2022/04/06 08:52:10;;;;;;;;;;;31.40;62.90;;;;;;5085715;28;19958;-59
2022/04/06 08:54:37;;;;;;;;;;;31.50;62.10;;;;;;5081884;28;19989;-58
2022/04/06 08:57:05;;;;;;;;;;;31.90;59.40;;;;;;5079613;28;19931;-59
2022/04/06 08:59:32;;;;;;;;;;;31.20;60.00;;;;;;5085263;28;19924;-59
2022/04/06 09:01:58;;;;;;;;;;;31.50;61.60;;;;;;5085346;28;19924;-59
2022/04/06 09:04:26;;;;;;;;;;;31.70;58.90;;;;;;5087573;28;19924;-58
2022/04/06 09:06:54;;;;;;;;;;;31.80;59.00;;;;;;5080821;28;19937;-59
2022/04/06 09:09:22;;;;;;;;;;;31.40;61.10;;;;;;5077801;28;19928;-58
2022/04/06 09:11:52;;;;;;;;;;;30.90;59.10;;;;;;5078907;28;19932;-59
2022/04/06 09:14:29;;;;;;;;;;;31.10;62.60;;;;;;5083767;28;19924;-59
2022/04/06 09:17:01;;;;;;;;;;;31.10;61.70;;;;;;5081747;28;19978;-58
2022/04/06 09:19:28;;;;;;;;;;;30.60;64.70;;;;;;5078801;28;19932;-59
2022/04/06 09:21:56;;;;;;;;;;;29.50;65.00;;;;;;5081137;28;19928;-59
2022/04/06 09:24:24;;;;;;;;;;;29.00;63.70;;;;;;5080985;28;19928;-59
2022/04/06 09:26:56;;;;;;;;;;;29.60;63.60;;;;;;5078585;28;19978;-58
2022/04/06 09:29:23;;;;;;;;;;;29.40;61.20;;;;;;5079272;28;19928;-58
2022/04/06 09:31:51;;;;;;;;;;;29.00;61.70;;;;;;5084695;28;20008;-59
2022/04/06 09:34:20;;;;;;;;;;;30.10;62.60;;;;;;5077432;28;19939;-59
2022/04/06 09:36:47;;;;;;;;;;;30.10;60.40;;;;;;5083645;28;19932;-59
2022/04/06 09:39:15;;;;;;;;;;;29.30;64.70;;;;;;5081067;28;20231;-59
2022/04/06 09:41:56;;;;;;;;;;;28.70;62.80;;;;;;5090025;28;19924;-58
2022/04/06 09:47:40;;;;;;;;;;;28.80;64.40;;;;;;5020311;28;21587;-59
2022/04/06 09:50:11;;;;;;;;;;;30.00;60.40;;;;;;5020336;28;19964;-59
2022/04/06 09:52:38;;;;;;;;;;;30.80;58.40;;;;;;5059836;28;19997;-58
2022/04/06 09:55:08;;;;;;;;;;;29.00;60.30;;;;;;5090077;28;19997;-58
2022/04/06 09:57:39;;;;;;;;;;;27.70;65.20;;;;;;5088506;28;19931;-59
2022/04/06 10:00:07;;;;;;;;;;;28.00;63.50;;;;;;5081365;28;19924;-59
2022/04/06 10:02:35;;;;;;;;;;;28.30;66.30;;;;;;5080070;28;19967;-58
2022/04/06 10:05:03;;;;;;;;;;;27.70;66.50;;;;;;5080567;28;20422;-59
2022/04/06 10:07:30;;;;;;;;;;;28.40;65.80;;;;;;5078821;28;19989;-58
2022/04/06 10:09:58;;;;;;;;;;;28.60;64.50;;;;;;5080115;28;19970;-58
2022/04/06 10:12:27;;;;;;;;;;;29.30;61.30;;;;;;5081382;28;19924;-58
2022/04/06 10:14:54;;;;;;;;;;;29.60;60.50;;;;;;5083000;28;19928;-58
2022/04/06 10:17:22;;;;;;;;;;;29.40;63.70;;;;;;5077185;28;20061;-58
2022/04/06 10:19:52;;;;;;;;;;;28.70;66.60;;;;;;5076819;28;21194;-58
2022/04/06 10:22:20;;;;;;;;;;;27.10;67.80;;;;;;5077853;28;19928;-58
2022/04/06 10:24:54;;;;;;;;;;;26.60;70.60;;;;;;5078277;28;19967;-58
2022/04/06 10:27:25;;;;;;;;;;;26.20;69.90;;;;;;5083738;28;19978;-58
2022/04/06 10:30:12;;;;;;;;;;;26.70;67.30;;;;;;5079548;28;20424;-58
2022/04/06 10:32:40;;;;;;;;;;;27.50;67.50;;;;;;5080609;28;19928;-57
2022/04/06 10:35:20;;;;;;;;;;;26.80;69.40;;;;;;5081664;28;20278;-58
2022/04/06 10:37:50;;;;;;;;;;;27.20;67.70;;;;;;5081478;28;20393;-58
2022/04/06 10:40:17;;;;;;;;;;;27.80;67.30;;;;;;5082325;28;20466;-58
2022/04/06 10:42:45;;;;;;;;;;;27.80;71.00;;;;;;5080762;28;19935;-58
2022/04/06 10:45:31;;;;;;;;;;;27.10;67.90;;;;;;5082639;28;20019;-58
2022/04/06 10:48:15;;;;;;;;;;;27.50;68.40;;;;;;5080596;28;19936;-58
2022/04/06 10:50:42;;;;;;;;;;;28.20;65.90;;;;;;5080498;28;19939;-58
2022/04/06 10:53:29;;;;;;;;;;;28.10;67.30;;;;;;5082708;28;19924;-57
2022/04/06 10:56:01;;;;;;;;;;;25.90;69.40;;;;;;5082215;28;19967;-56
2022/04/06 10:58:27;;;;;;;;;;;24.80;74.40;;;;;;5081545;28;20420;-57
2022/04/06 11:01:13;;;;;;;;;;;23.20;77.50;;;;;;5080619;28;19981;-57
2022/04/06 11:03:41;;;;;;;;;;;22.50;80.10;;;;;;5080386;28;19924;-57
2022/04/06 11:06:08;;;;;;;;;;;22.10;81.20;;;;;;5080680;28;20009;-57
2022/04/06 11:11:46;;;;;;;;;;;20.90;83.00;;;;;;5082361;28;19939;-58
2022/04/06 11:14:14;;;;;;;;;;;20.50;83.90;;;;;;5081672;28;20258;-58
2022/04/06 11:16:41;;;;;;;;;;;20.00;88.30;;;;;;5084086;28;19935;-58
2022/04/06 11:19:09;;;;;;;;;;;20.40;86.10;;;;;;5082879;28;19962;-58
2022/04/06 11:21:49;;;;;;;;;;;20.50;84.40;;;;;;5084028;28;19977;-57
2022/04/06 11:24:20;;;;;;;;;;;20.20;85.60;;;;;;5079190;28;19925;-57
2022/04/06 11:26:47;;;;;;;;;;;20.00;87.20;;;;;;5081566;28;20029;-57
2022/04/06 11:29:14;;;;;;;;;;;19.70;88.40;;;;;;5080842;28;20709;-57
2022/04/06 11:31:56;;;;;;;;;;;19.80;86.70;;;;;;5083647;28;19928;-58
2022/04/06 11:34:39;;;;;;;;;;;20.00;88.60;;;;;;5080582;28;20381;-57
2022/04/06 11:37:07;;;;;;;;;;;18.90;90.00;;;;;;5087536;28;19985;-57
2022/04/06 11:39:34;;;;;;;;;;;19.20;90.70;;;;;;5079462;28;19927;-57
2022/04/06 11:42:03;;;;;;;;;;;19.30;87.60;;;;;;5082150;28;19993;-57
2022/04/06 11:44:30;;;;;;;;;;;19.20;89.60;;;;;;5078839;28;19928;-56
2022/04/06 11:46:57;;;;;;;;;;;19.30;90.50;;;;;;5081760;28;19928;-56
2022/04/06 11:49:26;;;;;;;;;;;19.10;91.80;;;;;;5079493;28;19978;-57
2022/04/06 11:51:55;;;;;;;;;;;19.20;91.60;;;;;;5080824;28;20029;-57
2022/04/06 11:54:22;;;;;;;;;;;19.00;90.10;;;;;;5084509;28;20055;-57
2022/04/06 11:56:50;;;;;;;;;;;19.10;91.20;;;;;;5081405;28;19943;-57
2022/04/06 11:59:19;;;;;;;;;;;19.00;90.40;;;;;;5088356;28;19966;-57
2022/04/06 12:01:46;;;;;;;;;;;19.30;88.60;;;;;;5079145;28;20015;-57
2022/04/06 12:04:14;;;;;;;;;;;19.50;88.80;;;;;;5080424;28;19928;-56
2022/04/06 12:06:40;;;;;;;;;;;19.80;88.70;;;;;;5084328;28;20015;-58
2022/04/06 12:09:09;;;;;;;;;;;19.70;90.50;;;;;;5087674;28;19925;-57
2022/04/06 12:11:36;;;;;;;;;;;19.20;89.70;;;;;;5079723;28;19981;-56
2022/04/06 12:14:03;;;;;;;;;;;18.90;89.10;;;;;;5079679;28;20366;-57
2022/04/06 12:16:31;;;;;;;;;;;18.50;91.00;;;;;;5081325;28;19927;-56
2022/04/06 12:18:57;;;;;;;;;;;18.70;90.20;;;;;;5086409;28;19924;-57
2022/04/06 12:21:25;;;;;;;;;;;18.80;90.60;;;;;;5091851;28;19924;-58
2022/04/06 12:23:52;;;;;;;;;;;19.20;89.90;;;;;;5089516;28;20351;-57
2022/04/06 12:26:21;;;;;;;;;;;18.70;91.00;;;;;;5079688;28;20023;-57
2022/04/06 12:28:49;;;;;;;;;;;18.90;90.60;;;;;;5078369;28;19931;-56
2022/04/06 12:31:15;;;;;;;;;;;19.00;91.60;;;;;;5078932;28;19932;-58
2022/04/06 12:33:43;;;;;;;;;;;18.70;92.20;;;;;;5082631;28;19935;-57
2022/04/06 12:36:19;;;;;;;;;;;18.20;93.20;;;;;;5073247;28;19928;-58
2022/04/06 12:38:57;;;;;;;;;;;18.40;91.10;;;;;;5080337;28;19967;-58
2022/04/06 12:41:26;;;;;;;;;;;18.80;92.50;;;;;;5085088;28;19946;-57
2022/04/06 12:43:53;;;;;;;;;;;18.60;91.50;;;;;;5087951;28;20613;-57
2022/04/06 12:46:36;;;;;;;;;;;18.60;91.00;;;;;;5080333;28;20007;-58
2022/04/06 12:49:19;;;;;;;;;;;18.70;93.50;;;;;;5078578;28;19977;-57
2022/04/06 12:51:45;;;;;;;;;;;18.70;92.90;;;;;;5079002;28;19932;-57
2022/04/06 12:54:13;;;;;;;;;;;18.60;92.50;;;;;;5077805;28;19978;-57
2022/04/06 12:57:02;;;;;;;;;;;18.40;92.60;;;;;;5079098;28;19923;-57
2022/04/06 12:59:35;;;;;;;;;;;18.10;92.30;;;;;;5079982;28;19932;-56
2022/04/06 13:02:04;;;;;;;;;;;17.80;91.70;;;;;;5079382;28;19993;-58
2022/04/06 13:04:31;;;;;;;;;;;18.00;93.80;;;;;;5083718;28;19924;-57
2022/04/06 13:06:58;;;;;;;;;;;17.60;94.30;;;;;;5081839;28;20013;-57
2022/04/06 13:09:24;;;;;;;;;;;17.40;93.30;;;;;;5080697;28;19981;-56
2022/04/06 13:11:52;;;;;;;;;;;17.30;94.20;;;;;;5084319;28;19969;-57
2022/04/06 13:14:20;;;;;;;;;;;17.70;94.60;;;;;;5078970;28;19924;-57
2022/04/06 13:16:47;;;;;;;;;;;17.90;94.30;;;;;;5079537;28;19924;-57
2022/04/06 13:19:15;;;;;;;;;;;17.90;94.20;;;;;;5079079;28;20024;-57
2022/04/06 13:21:42;;;;;;;;;;;17.90;92.80;;;;;;5079013;28;19924;-56
2022/04/06 13:24:09;;;;;;;;;;;18.00;92.70;;;;;;5078171;28;19982;-57
2022/04/06 13:26:36;;;;;;;;;;;18.10;94.40;;;;;;5080083;28;19932;-56
2022/04/06 13:29:04;;;;;;;;;;;17.70;93.50;;;;;;5077715;28;19924;-56
2022/04/06 13:31:30;;;;;;;;;;;17.50;95.10;;;;;;5080772;28;19946;-57
2022/04/06 13:33:57;;;;;;;;;;;17.50;95.20;;;;;;5088197;28;19924;-56
2022/04/06 13:36:24;;;;;;;;;;;17.30;94.90;;;;;;5084259;28;19925;-57
2022/04/06 13:38:52;;;;;;;;;;;17.60;94.40;;;;;;5088438;28;19982;-57
2022/04/06 13:41:18;;;;;;;;;;;17.50;94.50;;;;;;5088088;28;19924;-56
2022/04/06 13:43:45;;;;;;;;;;;17.60;94.50;;;;;;5084659;28;19924;-56
2022/04/06 13:46:13;;;;;;;;;;;17.50;95.20;;;;;;5088443;28;19961;-57
2022/04/06 13:48:40;;;;;;;;;;;17.70;94.40;;;;;;5089788;28;20455;-57
2022/04/06 13:51:08;;;;;;;;;;;17.70;95.20;;;;;;5088999;28;19932;-57
2022/04/06 13:53:35;;;;;;;;;;;17.90;93.60;;;;;;5088480;28;20703;-56
2022/04/06 13:56:02;;;;;;;;;;;17.70;94.10;;;;;;5082571;28;19924;-57
2022/04/06 13:58:29;;;;;;;;;;;17.80;94.20;;;;;;5087400;28;19982;-57
2022/04/06 14:00:57;;;;;;;;;;;17.70;95.00;;;;;;5090955;28;19928;-57
2022/04/06 14:03:25;;;;;;;;;;;17.90;94.70;;;;;;5092359;28;19932;-57
2022/04/06 14:05:55;;;;;;;;;;;18.00;93.70;;;;;;5086946;28;19970;-57
2022/04/06 14:08:22;;;;;;;;;;;17.80;93.90;;;;;;5082410;28;19939;-57
2022/04/06 14:10:48;;;;;;;;;;;17.70;94.20;;;;;;5081768;28;20397;-56
2022/04/06 14:13:16;;;;;;;;;;;18.00;94.00;;;;;;5089211;28;19945;-57
2022/04/06 14:15:42;;;;;;;;;;;17.90;94.30;;;;;;5082731;28;19924;-57
2022/04/06 14:18:09;;;;;;;;;;;18.00;94.60;;;;;;5084260;28;19924;-57
2022/04/06 14:20:37;;;;;;;;;;;18.00;93.60;;;;;;5082734;28;19929;-57
2022/04/06 14:23:04;;;;;;;;;;;17.80;94.20;;;;;;5082163;28;19932;-57
2022/04/06 14:25:31;;;;;;;;;;;17.80;93.80;;;;;;5082533;28;19924;-57
2022/04/06 14:27:58;;;;;;;;;;;17.90;94.30;;;;;;5080562;28;20450;-57
2022/04/06 14:30:25;;;;;;;;;;;17.90;94.10;;;;;;5083508;28;20029;-57
2022/04/06 14:32:52;;;;;;;;;;;17.80;93.20;;;;;;5083605;28;19924;-57
2022/04/06 14:35:19;;;;;;;;;;;18.10;92.60;;;;;;5091101;28;19928;-57
2022/04/06 14:37:48;;;;;;;;;;;18.30;92.80;;;;;;5091557;28;19989;-57
2022/04/06 14:40:15;;;;;;;;;;;18.10;93.30;;;;;;5085425;28;19924;-57